sensor_id;sensor_type;location;lat;lon;timestamp;P1;durP1;ratioP1;P2;durP2;ratioP2
44143;SDS011;43510;51.920;4.492;2022-09-28T00:01:32;5.13;;;1.98;;
44143;SDS011;43510;51.920;4.492;2022-09-28T00:03:58;5.15;;;1.50;;
44143;SDS011;43510;51.920;4.492;2022-09-28T00:06:25;3.13;;;1.52;;
44143;SDS011;43510;51.920;4.492;2022-09-28T00:08:52;6.03;;;1.50;;
44143;SDS011;43510;51.920;4.492;2022-09-28T00:11:19;7.53;;;1.55;;
44143;SDS011;43510;51.920;4.492;2022-09-28T00:13:50;2.83;;;1.65;;
44143;SDS011;43510;51.920;4.492;2022-09-28T00:16:17;3.90;;;1.35;;
44143;SDS011;43510;51.920;4.492;2022-09-28T00:18:44;6.20;;;1.38;;
44143;SDS011;43510;51.920;4.492;2022-09-28T00:21:14;9.52;;;1.40;;
44143;SDS011;43510;51.920;4.492;2022-09-28T00:23:41;2.85;;;1.10;;
44143;SDS011;43510;51.920;4.492;2022-09-28T00:26:26;3.17;;;1.27;;
44143;SDS011;43510;51.920;4.492;2022-09-28T00:28:53;5.40;;;1.35;;
44143;SDS011;43510;51.920;4.492;2022-09-28T00:31:20;1.90;;;0.80;;
44143;SDS011;43510;51.920;4.492;2022-09-28T00:33:52;3.90;;;0.80;;
44143;SDS011;43510;51.920;4.492;2022-09-28T00:36:21;2.17;;;0.73;;
44143;SDS011;43510;51.920;4.492;2022-09-28T00:38:48;2.95;;;1.00;;
44143;SDS011;43510;51.920;4.492;2022-09-28T00:41:14;3.10;;;0.73;;
44143;SDS011;43510;51.920;4.492;2022-09-28T00:43:40;2.50;;;0.80;;
44143;SDS011;43510;51.920;4.492;2022-09-28T00:48:41;2.95;;;0.70;;
44143;SDS011;43510;51.920;4.492;2022-09-28T00:51:21;1.10;;;0.70;;
44143;SDS011;43510;51.920;4.492;2022-09-28T00:53:49;1.23;;;0.68;;
44143;SDS011;43510;51.920;4.492;2022-09-28T00:56:16;1.98;;;0.65;;
44143;SDS011;43510;51.920;4.492;2022-09-28T00:58:45;2.25;;;0.80;;
44143;SDS011;43510;51.920;4.492;2022-09-28T01:01:14;6.13;;;1.10;;
44143;SDS011;43510;51.920;4.492;2022-09-28T01:03:39;5.80;;;1.17;;
44143;SDS011;43510;51.920;4.492;2022-09-28T01:06:09;2.28;;;0.90;;
44143;SDS011;43510;51.920;4.492;2022-09-28T01:08:39;2.75;;;0.82;;
44143;SDS011;43510;51.920;4.492;2022-09-28T01:11:05;4.15;;;1.00;;
44143;SDS011;43510;51.920;4.492;2022-09-28T01:13:30;2.47;;;1.10;;
44143;SDS011;43510;51.920;4.492;2022-09-28T01:21:58;3.20;;;0.85;;
44143;SDS011;43510;51.920;4.492;2022-09-28T01:24:41;4.57;;;0.93;;
44143;SDS011;43510;51.920;4.492;2022-09-28T01:27:28;2.58;;;0.80;;
44143;SDS011;43510;51.920;4.492;2022-09-28T01:30:10;2.13;;;0.57;;
44143;SDS011;43510;51.920;4.492;2022-09-28T01:32:52;1.88;;;0.70;;
44143;SDS011;43510;51.920;4.492;2022-09-28T01:35:45;1.13;;;0.43;;
44143;SDS011;43510;51.920;4.492;2022-09-28T01:38:18;4.15;;;0.80;;
44143;SDS011;43510;51.920;4.492;2022-09-28T01:40:49;2.90;;;0.45;;
44143;SDS011;43510;51.920;4.492;2022-09-28T01:43:17;1.77;;;0.57;;
44143;SDS011;43510;51.920;4.492;2022-09-28T01:45:48;1.60;;;0.80;;
44143;SDS011;43510;51.920;4.492;2022-09-28T01:48:32;0.88;;;0.60;;
44143;SDS011;43510;51.920;4.492;2022-09-28T01:51:07;1.45;;;0.52;;
44143;SDS011;43510;51.920;4.492;2022-09-28T01:53:39;2.60;;;0.80;;
44143;SDS011;43510;51.920;4.492;2022-09-28T01:56:18;1.42;;;0.60;;
44143;SDS011;43510;51.920;4.492;2022-09-28T02:01:42;2.22;;;0.80;;
44143;SDS011;43510;51.920;4.492;2022-09-28T02:04:13;3.03;;;0.73;;
44143;SDS011;43510;51.920;4.492;2022-09-28T02:06:44;1.83;;;0.70;;
44143;SDS011;43510;51.920;4.492;2022-09-28T02:09:20;5.47;;;0.68;;
44143;SDS011;43510;51.920;4.492;2022-09-28T02:11:50;2.72;;;0.77;;
44143;SDS011;43510;51.920;4.492;2022-09-28T02:14:20;1.08;;;0.50;;
44143;SDS011;43510;51.920;4.492;2022-09-28T02:16:50;2.20;;;0.95;;
44143;SDS011;43510;51.920;4.492;2022-09-28T02:19:23;1.80;;;0.60;;
44143;SDS011;43510;51.920;4.492;2022-09-28T02:24:37;2.63;;;0.82;;
44143;SDS011;43510;51.920;4.492;2022-09-28T02:27:16;1.33;;;0.60;;
44143;SDS011;43510;51.920;4.492;2022-09-28T02:29:49;4.53;;;0.80;;
44143;SDS011;43510;51.920;4.492;2022-09-28T02:32:15;2.67;;;0.63;;
44143;SDS011;43510;51.920;4.492;2022-09-28T02:34:43;2.78;;;0.70;;
44143;SDS011;43510;51.920;4.492;2022-09-28T02:37:09;4.00;;;0.70;;
44143;SDS011;43510;51.920;4.492;2022-09-28T02:39:34;0.82;;;0.55;;
44143;SDS011;43510;51.920;4.492;2022-09-28T02:50:28;3.10;;;0.80;;
44143;SDS011;43510;51.920;4.492;2022-09-28T02:55:59;6.53;;;1.23;;
44143;SDS011;43510;51.920;4.492;2022-09-28T02:58:48;1.92;;;0.80;;
44143;SDS011;43510;51.920;4.492;2022-09-28T03:06:56;5.97;;;1.60;;
44143;SDS011;43510;51.920;4.492;2022-09-28T03:09:28;5.18;;;2.00;;
44143;SDS011;43510;51.920;4.492;2022-09-28T03:12:03;3.53;;;1.10;;
44143;SDS011;43510;51.920;4.492;2022-09-28T03:16:58;7.45;;;1.60;;
44143;SDS011;43510;51.920;4.492;2022-09-28T03:19:24;4.53;;;1.58;;
44143;SDS011;43510;51.920;4.492;2022-09-28T03:21:54;6.20;;;1.27;;
44143;SDS011;43510;51.920;4.492;2022-09-28T03:24:19;4.10;;;1.10;;
44143;SDS011;43510;51.920;4.492;2022-09-28T03:26:45;4.60;;;1.20;;
44143;SDS011;43510;51.920;4.492;2022-09-28T03:29:10;3.67;;;1.10;;
44143;SDS011;43510;51.920;4.492;2022-09-28T03:31:36;2.85;;;0.88;;
44143;SDS011;43510;51.920;4.492;2022-09-28T03:34:02;6.28;;;1.13;;
44143;SDS011;43510;51.920;4.492;2022-09-28T03:36:27;2.03;;;0.90;;
44143;SDS011;43510;51.920;4.492;2022-09-28T03:38:53;4.07;;;1.10;;
44143;SDS011;43510;51.920;4.492;2022-09-28T03:41:24;8.85;;;1.33;;
44143;SDS011;43510;51.920;4.492;2022-09-28T03:43:53;6.63;;;1.48;;
44143;SDS011;43510;51.920;4.492;2022-09-28T03:46:18;2.03;;;0.85;;
44143;SDS011;43510;51.920;4.492;2022-09-28T03:48:44;3.60;;;0.90;;
44143;SDS011;43510;51.920;4.492;2022-09-28T03:51:10;4.10;;;1.27;;
44143;SDS011;43510;51.920;4.492;2022-09-28T03:53:36;7.15;;;1.58;;
44143;SDS011;43510;51.920;4.492;2022-09-28T03:56:03;4.80;;;1.35;;
44143;SDS011;43510;51.920;4.492;2022-09-28T03:58:29;5.93;;;1.42;;
44143;SDS011;43510;51.920;4.492;2022-09-28T04:00:59;4.97;;;2.17;;
44143;SDS011;43510;51.920;4.492;2022-09-28T04:03:26;4.45;;;1.20;;
44143;SDS011;43510;51.920;4.492;2022-09-28T04:05:52;11.15;;;1.60;;
44143;SDS011;43510;51.920;4.492;2022-09-28T04:08:18;11.90;;;1.77;;
44143;SDS011;43510;51.920;4.492;2022-09-28T04:10:43;7.15;;;1.80;;
44143;SDS011;43510;51.920;4.492;2022-09-28T04:13:09;3.33;;;1.60;;
44143;SDS011;43510;51.920;4.492;2022-09-28T04:15:35;6.93;;;1.30;;
44143;SDS011;43510;51.920;4.492;2022-09-28T04:18:02;8.73;;;2.00;;
44143;SDS011;43510;51.920;4.492;2022-09-28T04:20:28;5.53;;;1.50;;
44143;SDS011;43510;51.920;4.492;2022-09-28T04:22:53;6.75;;;1.55;;
44143;SDS011;43510;51.920;4.492;2022-09-28T04:25:19;9.73;;;1.83;;
44143;SDS011;43510;51.920;4.492;2022-09-28T04:27:44;10.07;;;1.75;;
44143;SDS011;43510;51.920;4.492;2022-09-28T04:30:28;10.70;;;1.77;;
44143;SDS011;43510;51.920;4.492;2022-09-28T04:32:54;7.40;;;1.33;;
44143;SDS011;43510;51.920;4.492;2022-09-28T04:35:19;5.82;;;1.75;;
44143;SDS011;43510;51.920;4.492;2022-09-28T04:37:45;4.60;;;2.60;;
44143;SDS011;43510;51.920;4.492;2022-09-28T04:40:10;6.07;;;1.52;;
44143;SDS011;43510;51.920;4.492;2022-09-28T04:42:35;7.95;;;1.60;;
44143;SDS011;43510;51.920;4.492;2022-09-28T04:45:01;7.53;;;1.52;;
44143;SDS011;43510;51.920;4.492;2022-09-28T04:47:28;3.35;;;1.25;;
44143;SDS011;43510;51.920;4.492;2022-09-28T04:49:54;4.10;;;1.45;;
44143;SDS011;43510;51.920;4.492;2022-09-28T04:52:20;7.40;;;1.25;;
44143;SDS011;43510;51.920;4.492;2022-09-28T04:54:45;2.33;;;1.20;;
44143;SDS011;43510;51.920;4.492;2022-09-28T04:57:11;5.75;;;1.55;;
44143;SDS011;43510;51.920;4.492;2022-09-28T04:59:36;4.90;;;1.65;;
44143;SDS011;43510;51.920;4.492;2022-09-28T05:02:02;4.53;;;1.52;;
44143;SDS011;43510;51.920;4.492;2022-09-28T05:04:28;6.95;;;1.70;;
44143;SDS011;43510;51.920;4.492;2022-09-28T05:06:55;5.38;;;1.55;;
44143;SDS011;43510;51.920;4.492;2022-09-28T05:09:20;4.00;;;1.13;;
44143;SDS011;43510;51.920;4.492;2022-09-28T05:11:49;6.50;;;1.17;;
44143;SDS011;43510;51.920;4.492;2022-09-28T05:14:17;7.55;;;1.27;;
44143;SDS011;43510;51.920;4.492;2022-09-28T05:16:45;4.65;;;1.25;;
44143;SDS011;43510;51.920;4.492;2022-09-28T05:19:11;5.47;;;1.13;;
44143;SDS011;43510;51.920;4.492;2022-09-28T05:21:36;1.75;;;0.70;;
44143;SDS011;43510;51.920;4.492;2022-09-28T05:24:02;4.82;;;1.33;;
44143;SDS011;43510;51.920;4.492;2022-09-28T05:26:31;4.13;;;1.20;;
44143;SDS011;43510;51.920;4.492;2022-09-28T05:28:57;7.63;;;1.10;;
44143;SDS011;43510;51.920;4.492;2022-09-28T05:31:22;2.47;;;1.17;;
44143;SDS011;43510;51.920;4.492;2022-09-28T05:33:48;8.27;;;1.38;;
44143;SDS011;43510;51.920;4.492;2022-09-28T05:36:13;5.15;;;1.40;;
44143;SDS011;43510;51.920;4.492;2022-09-28T05:38:39;10.15;;;1.23;;
44143;SDS011;43510;51.920;4.492;2022-09-28T05:41:04;6.13;;;1.02;;
44143;SDS011;43510;51.920;4.492;2022-09-28T05:43:30;3.55;;;0.93;;
44143;SDS011;43510;51.920;4.492;2022-09-28T05:45:57;6.18;;;1.20;;
44143;SDS011;43510;51.920;4.492;2022-09-28T05:48:23;2.13;;;0.90;;
44143;SDS011;43510;51.920;4.492;2022-09-28T05:50:52;5.50;;;0.90;;
44143;SDS011;43510;51.920;4.492;2022-09-28T05:53:18;2.22;;;1.20;;
44143;SDS011;43510;51.920;4.492;2022-09-28T05:55:43;5.93;;;1.10;;
44143;SDS011;43510;51.920;4.492;2022-09-28T05:58:09;2.15;;;0.85;;
44143;SDS011;43510;51.920;4.492;2022-09-28T06:00:34;2.05;;;1.00;;
44143;SDS011;43510;51.920;4.492;2022-09-28T06:03:04;5.20;;;1.10;;
44143;SDS011;43510;51.920;4.492;2022-09-28T06:05:33;1.98;;;0.90;;
44143;SDS011;43510;51.920;4.492;2022-09-28T06:08:00;4.32;;;0.93;;
44143;SDS011;43510;51.920;4.492;2022-09-28T06:10:26;2.70;;;0.75;;
44143;SDS011;43510;51.920;4.492;2022-09-28T06:12:53;1.83;;;0.68;;
44143;SDS011;43510;51.920;4.492;2022-09-28T06:15:19;8.45;;;1.08;;
44143;SDS011;43510;51.920;4.492;2022-09-28T06:17:45;5.97;;;0.90;;
44143;SDS011;43510;51.920;4.492;2022-09-28T06:20:11;6.20;;;1.00;;
44143;SDS011;43510;51.920;4.492;2022-09-28T06:22:37;4.95;;;1.20;;
44143;SDS011;43510;51.920;4.492;2022-09-28T06:25:03;3.90;;;0.80;;
44143;SDS011;43510;51.920;4.492;2022-09-28T06:27:29;5.60;;;1.20;;
44143;SDS011;43510;51.920;4.492;2022-09-28T06:29:55;3.33;;;1.25;;
44143;SDS011;43510;51.920;4.492;2022-09-28T06:32:20;5.00;;;1.27;;
44143;SDS011;43510;51.920;4.492;2022-09-28T06:34:45;5.30;;;1.45;;
44143;SDS011;43510;51.920;4.492;2022-09-28T06:37:11;4.63;;;1.50;;
44143;SDS011;43510;51.920;4.492;2022-09-28T06:39:36;4.43;;;1.58;;
44143;SDS011;43510;51.920;4.492;2022-09-28T06:42:02;6.32;;;1.58;;
44143;SDS011;43510;51.920;4.492;2022-09-28T06:44:28;3.45;;;1.45;;
44143;SDS011;43510;51.920;4.492;2022-09-28T06:46:53;5.30;;;1.80;;
44143;SDS011;43510;51.920;4.492;2022-09-28T06:49:22;5.95;;;1.90;;
44143;SDS011;43510;51.920;4.492;2022-09-28T06:51:48;5.78;;;1.90;;
44143;SDS011;43510;51.920;4.492;2022-09-28T06:54:14;8.23;;;2.33;;
44143;SDS011;43510;51.920;4.492;2022-09-28T06:56:39;5.72;;;1.98;;
44143;SDS011;43510;51.920;4.492;2022-09-28T06:59:04;5.35;;;1.25;;
44143;SDS011;43510;51.920;4.492;2022-09-28T07:01:30;4.07;;;2.33;;
44143;SDS011;43510;51.920;4.492;2022-09-28T07:03:55;3.72;;;1.38;;
44143;SDS011;43510;51.920;4.492;2022-09-28T07:06:21;3.63;;;1.40;;
44143;SDS011;43510;51.920;4.492;2022-09-28T07:08:48;5.38;;;1.30;;
44143;SDS011;43510;51.920;4.492;2022-09-28T07:11:14;4.68;;;1.10;;
44143;SDS011;43510;51.920;4.492;2022-09-28T07:13:39;4.53;;;1.15;;
44143;SDS011;43510;51.920;4.492;2022-09-28T07:16:05;6.68;;;1.20;;
44143;SDS011;43510;51.920;4.492;2022-09-28T07:18:31;2.95;;;1.10;;
44143;SDS011;43510;51.920;4.492;2022-09-28T07:20:56;4.93;;;1.20;;
44143;SDS011;43510;51.920;4.492;2022-09-28T07:23:23;5.47;;;1.42;;
44143;SDS011;43510;51.920;4.492;2022-09-28T07:25:51;2.08;;;1.02;;
44143;SDS011;43510;51.920;4.492;2022-09-28T07:28:17;4.90;;;1.38;;
44143;SDS011;43510;51.920;4.492;2022-09-28T07:30:43;3.88;;;1.60;;
44143;SDS011;43510;51.920;4.492;2022-09-28T07:33:09;2.10;;;0.75;;
44143;SDS011;43510;51.920;4.492;2022-09-28T07:35:36;3.55;;;1.10;;
44143;SDS011;43510;51.920;4.492;2022-09-28T07:38:03;3.22;;;1.05;;
44143;SDS011;43510;51.920;4.492;2022-09-28T07:40:30;3.08;;;1.15;;
44143;SDS011;43510;51.920;4.492;2022-09-28T07:43:15;7.35;;;1.55;;
44143;SDS011;43510;51.920;4.492;2022-09-28T07:45:45;4.72;;;1.45;;
44143;SDS011;43510;51.920;4.492;2022-09-28T07:48:15;4.88;;;1.30;;
44143;SDS011;43510;51.920;4.492;2022-09-28T07:50:51;7.45;;;1.70;;
44143;SDS011;43510;51.920;4.492;2022-09-28T07:53:18;2.17;;;1.00;;
44143;SDS011;43510;51.920;4.492;2022-09-28T07:55:54;4.38;;;1.80;;
44143;SDS011;43510;51.920;4.492;2022-09-28T07:58:21;2.00;;;0.88;;
44143;SDS011;43510;51.920;4.492;2022-09-28T08:00:47;4.35;;;1.48;;
44143;SDS011;43510;51.920;4.492;2022-09-28T08:03:14;3.08;;;0.80;;
44143;SDS011;43510;51.920;4.492;2022-09-28T08:05:43;2.10;;;0.82;;
44143;SDS011;43510;51.920;4.492;2022-09-28T08:08:10;6.18;;;1.00;;
44143;SDS011;43510;51.920;4.492;2022-09-28T08:10:36;2.97;;;1.02;;
44143;SDS011;43510;51.920;4.492;2022-09-28T08:13:02;2.75;;;0.70;;
44143;SDS011;43510;51.920;4.492;2022-09-28T08:15:30;1.88;;;0.60;;
44143;SDS011;43510;51.920;4.492;2022-09-28T08:18:05;1.58;;;0.52;;
44143;SDS011;43510;51.920;4.492;2022-09-28T08:20:31;2.88;;;0.70;;
44143;SDS011;43510;51.920;4.492;2022-09-28T08:23:15;2.72;;;0.60;;
44143;SDS011;43510;51.920;4.492;2022-09-28T08:25:48;1.65;;;0.63;;
44143;SDS011;43510;51.920;4.492;2022-09-28T08:28:16;4.15;;;0.90;;
44143;SDS011;43510;51.920;4.492;2022-09-28T08:30:42;2.53;;;0.65;;
44143;SDS011;43510;51.920;4.492;2022-09-28T08:33:09;5.05;;;1.05;;
44143;SDS011;43510;51.920;4.492;2022-09-28T08:35:35;2.40;;;0.98;;
44143;SDS011;43510;51.920;4.492;2022-09-28T08:38:00;3.58;;;0.77;;
44143;SDS011;43510;51.920;4.492;2022-09-28T08:40:27;4.25;;;1.00;;
44143;SDS011;43510;51.920;4.492;2022-09-28T08:42:59;6.57;;;1.35;;
44143;SDS011;43510;51.920;4.492;2022-09-28T08:45:30;4.80;;;1.13;;
44143;SDS011;43510;51.920;4.492;2022-09-28T08:50:53;3.80;;;0.93;;
44143;SDS011;43510;51.920;4.492;2022-09-28T08:53:31;2.40;;;0.60;;
44143;SDS011;43510;51.920;4.492;2022-09-28T08:56:09;2.97;;;0.80;;
44143;SDS011;43510;51.920;4.492;2022-09-28T08:58:43;1.63;;;0.68;;
44143;SDS011;43510;51.920;4.492;2022-09-28T09:01:15;3.03;;;1.08;;
44143;SDS011;43510;51.920;4.492;2022-09-28T09:03:43;2.85;;;0.68;;
44143;SDS011;43510;51.920;4.492;2022-09-28T09:09:06;0.70;;;0.40;;
44143;SDS011;43510;51.920;4.492;2022-09-28T09:22:59;1.40;;;0.50;;
44143;SDS011;43510;51.920;4.492;2022-09-28T09:25:40;3.20;;;0.70;;
44143;SDS011;43510;51.920;4.492;2022-09-28T09:34:18;3.85;;;0.90;;
44143;SDS011;43510;51.920;4.492;2022-09-28T09:51:29;2.53;;;0.75;;
44143;SDS011;43510;51.920;4.492;2022-09-28T09:54:02;5.95;;;0.93;;
44143;SDS011;43510;51.920;4.492;2022-09-28T09:56:44;1.63;;;0.70;;
44143;SDS011;43510;51.920;4.492;2022-09-28T09:59:15;2.75;;;0.88;;
44143;SDS011;43510;51.920;4.492;2022-09-28T10:01:48;4.15;;;1.30;;
44143;SDS011;43510;51.920;4.492;2022-09-28T10:04:23;6.18;;;1.27;;
44143;SDS011;43510;51.920;4.492;2022-09-28T10:06:52;3.28;;;0.88;;
44143;SDS011;43510;51.920;4.492;2022-09-28T10:09:23;1.85;;;0.90;;
44143;SDS011;43510;51.920;4.492;2022-09-28T10:11:51;3.47;;;1.30;;
44143;SDS011;43510;51.920;4.492;2022-09-28T10:14:21;4.05;;;1.15;;
44143;SDS011;43510;51.920;4.492;2022-09-28T10:16:49;5.75;;;1.58;;
44143;SDS011;43510;51.920;4.492;2022-09-28T10:19:18;9.57;;;1.92;;
44143;SDS011;43510;51.920;4.492;2022-09-28T10:21:49;12.73;;;1.63;;
44143;SDS011;43510;51.920;4.492;2022-09-28T10:26:53;3.63;;;0.88;;
44143;SDS011;43510;51.920;4.492;2022-09-28T10:29:23;4.07;;;1.40;;
44143;SDS011;43510;51.920;4.492;2022-09-28T10:31:51;2.58;;;1.10;;
44143;SDS011;43510;51.920;4.492;2022-09-28T10:34:24;5.35;;;1.23;;
44143;SDS011;43510;51.920;4.492;2022-09-28T10:36:52;5.07;;;0.80;;
44143;SDS011;43510;51.920;4.492;2022-09-28T10:42:24;3.35;;;1.00;;
44143;SDS011;43510;51.920;4.492;2022-09-28T10:47:27;3.10;;;0.77;;
44143;SDS011;43510;51.920;4.492;2022-09-28T10:49:57;4.93;;;0.70;;
44143;SDS011;43510;51.920;4.492;2022-09-28T10:54:55;12.45;;;1.63;;
44143;SDS011;43510;51.920;4.492;2022-09-28T10:57:28;2.50;;;0.90;;
44143;SDS011;43510;51.920;4.492;2022-09-28T10:59:58;3.53;;;1.20;;
44143;SDS011;43510;51.920;4.492;2022-09-28T11:02:28;6.85;;;1.45;;
44143;SDS011;43510;51.920;4.492;2022-09-28T11:04:57;2.75;;;0.95;;
44143;SDS011;43510;51.920;4.492;2022-09-28T11:07:26;4.95;;;0.85;;
44143;SDS011;43510;51.920;4.492;2022-09-28T11:09:58;2.55;;;0.95;;
44143;SDS011;43510;51.920;4.492;2022-09-28T11:12:36;2.38;;;0.75;;
44143;SDS011;43510;51.920;4.492;2022-09-28T11:15:10;1.67;;;0.73;;
44143;SDS011;43510;51.920;4.492;2022-09-28T11:17:44;3.45;;;1.00;;
44143;SDS011;43510;51.920;4.492;2022-09-28T11:22:54;4.07;;;0.85;;
44143;SDS011;43510;51.920;4.492;2022-09-28T11:25:26;2.15;;;0.80;;
44143;SDS011;43510;51.920;4.492;2022-09-28T11:30:31;2.75;;;0.82;;
44143;SDS011;43510;51.920;4.492;2022-09-28T11:33:11;1.55;;;0.60;;
44143;SDS011;43510;51.920;4.492;2022-09-28T11:35:44;3.90;;;0.93;;
44143;SDS011;43510;51.920;4.492;2022-09-28T11:41:01;2.58;;;0.75;;
44143;SDS011;43510;51.920;4.492;2022-09-28T11:44:05;1.23;;;0.60;;
44143;SDS011;43510;51.920;4.492;2022-09-28T11:46:48;3.65;;;0.90;;
44143;SDS011;43510;51.920;4.492;2022-09-28T11:51:59;3.40;;;0.80;;
44143;SDS011;43510;51.920;4.492;2022-09-28T11:54:31;2.33;;;0.57;;
44143;SDS011;43510;51.920;4.492;2022-09-28T11:57:04;3.25;;;0.70;;
44143;SDS011;43510;51.920;4.492;2022-09-28T11:59:39;3.38;;;0.80;;
44143;SDS011;43510;51.920;4.492;2022-09-28T12:04:52;3.72;;;1.10;;
44143;SDS011;43510;51.920;4.492;2022-09-28T12:07:36;4.20;;;1.05;;
44143;SDS011;43510;51.920;4.492;2022-09-28T12:18:18;4.28;;;1.02;;
44143;SDS011;43510;51.920;4.492;2022-09-28T12:20:50;4.10;;;0.70;;
44143;SDS011;43510;51.920;4.492;2022-09-28T12:23:28;5.45;;;1.10;;
44143;SDS011;43510;51.920;4.492;2022-09-28T12:25:58;1.15;;;0.60;;
44143;SDS011;43510;51.920;4.492;2022-09-28T12:28:34;3.45;;;0.80;;
44143;SDS011;43510;51.920;4.492;2022-09-28T12:33:44;2.42;;;0.63;;
44143;SDS011;43510;51.920;4.492;2022-09-28T12:39:23;3.83;;;0.50;;
44143;SDS011;43510;51.920;4.492;2022-09-28T12:42:19;4.68;;;0.60;;
44143;SDS011;43510;51.920;4.492;2022-09-28T12:48:02;3.58;;;0.60;;
44143;SDS011;43510;51.920;4.492;2022-09-28T12:50:56;2.80;;;0.73;;
44143;SDS011;43510;51.920;4.492;2022-09-28T12:56:51;4.53;;;1.20;;
44143;SDS011;43510;51.920;4.492;2022-09-28T12:59:39;6.15;;;1.08;;
44143;SDS011;43510;51.920;4.492;2022-09-28T13:08:21;3.45;;;0.77;;
44143;SDS011;43510;51.920;4.492;2022-09-28T13:25:48;3.22;;;1.27;;
44143;SDS011;43510;51.920;4.492;2022-09-28T13:28:16;6.07;;;0.80;;
44143;SDS011;43510;51.920;4.492;2022-09-28T13:30:45;3.10;;;1.02;;
44143;SDS011;43510;51.920;4.492;2022-09-28T13:33:34;1.48;;;0.50;;
44143;SDS011;43510;51.920;4.492;2022-09-28T13:36:03;1.48;;;0.70;;
44143;SDS011;43510;51.920;4.492;2022-09-28T13:38:54;3.53;;;1.00;;
44143;SDS011;43510;51.920;4.492;2022-09-28T13:41:29;2.85;;;0.60;;
44143;SDS011;43510;51.920;4.492;2022-09-28T13:49:26;2.95;;;0.95;;
44143;SDS011;43510;51.920;4.492;2022-09-28T13:57:56;2.13;;;0.90;;
44143;SDS011;43510;51.920;4.492;2022-09-28T14:00:42;2.17;;;0.80;;
44143;SDS011;43510;51.920;4.492;2022-09-28T14:06:06;2.78;;;0.50;;
44143;SDS011;43510;51.920;4.492;2022-09-28T14:13:58;3.03;;;0.80;;
44143;SDS011;43510;51.920;4.492;2022-09-28T14:16:28;1.88;;;0.55;;
44143;SDS011;43510;51.920;4.492;2022-09-28T14:27:28;1.40;;;0.52;;
44143;SDS011;43510;51.920;4.492;2022-09-28T14:32:54;1.55;;;0.50;;
44143;SDS011;43510;51.920;4.492;2022-09-28T14:35:38;3.28;;;1.08;;
44143;SDS011;43510;51.920;4.492;2022-09-28T14:38:13;2.30;;;0.60;;
44143;SDS011;43510;51.920;4.492;2022-09-28T14:54:03;4.10;;;0.73;;
44143;SDS011;43510;51.920;4.492;2022-09-28T14:56:38;2.42;;;0.80;;
44143;SDS011;43510;51.920;4.492;2022-09-28T14:59:04;1.65;;;0.70;;
44143;SDS011;43510;51.920;4.492;2022-09-28T15:01:34;1.05;;;0.63;;
44143;SDS011;43510;51.920;4.492;2022-09-28T15:04:01;1.80;;;0.68;;
44143;SDS011;43510;51.920;4.492;2022-09-28T15:06:43;1.90;;;0.70;;
44143;SDS011;43510;51.920;4.492;2022-09-28T15:09:29;1.92;;;0.65;;
44143;SDS011;43510;51.920;4.492;2022-09-28T15:14:58;1.98;;;0.55;;
44143;SDS011;43510;51.920;4.492;2022-09-28T15:17:30;2.20;;;0.73;;
44143;SDS011;43510;51.920;4.492;2022-09-28T15:22:24;0.50;;;0.50;;
44143;SDS011;43510;51.920;4.492;2022-09-28T15:24:55;3.15;;;0.93;;
44143;SDS011;43510;51.920;4.492;2022-09-28T15:27:22;4.28;;;1.00;;
44143;SDS011;43510;51.920;4.492;2022-09-28T15:29:55;3.22;;;1.00;;
44143;SDS011;43510;51.920;4.492;2022-09-28T15:32:24;6.43;;;1.10;;
44143;SDS011;43510;51.920;4.492;2022-09-28T15:34:51;3.90;;;1.05;;
44143;SDS011;43510;51.920;4.492;2022-09-28T15:37:18;8.68;;;1.45;;
44143;SDS011;43510;51.920;4.492;2022-09-28T15:39:47;4.25;;;1.17;;
44143;SDS011;43510;51.920;4.492;2022-09-28T15:42:14;5.40;;;1.20;;
44143;SDS011;43510;51.920;4.492;2022-09-28T15:44:41;3.55;;;1.10;;
44143;SDS011;43510;51.920;4.492;2022-09-28T15:47:11;3.38;;;1.05;;
44143;SDS011;43510;51.920;4.492;2022-09-28T15:49:43;4.22;;;0.85;;
44143;SDS011;43510;51.920;4.492;2022-09-28T15:53:17;3.03;;;1.20;;
44143;SDS011;43510;51.920;4.492;2022-09-28T15:55:30;2.38;;;1.05;;
44143;SDS011;43510;51.920;4.492;2022-09-28T16:00:39;5.75;;;1.40;;
44143;SDS011;43510;51.920;4.492;2022-09-28T16:05:47;3.72;;;1.02;;
44143;SDS011;43510;51.920;4.492;2022-09-28T16:08:20;3.55;;;1.17;;
44143;SDS011;43510;51.920;4.492;2022-09-28T16:10:54;5.22;;;1.63;;
44143;SDS011;43510;51.920;4.492;2022-09-28T16:13:26;4.30;;;1.35;;
44143;SDS011;43510;51.920;4.492;2022-09-28T16:15:57;4.47;;;1.50;;
44143;SDS011;43510;51.920;4.492;2022-09-28T16:18:27;2.28;;;1.02;;
44143;SDS011;43510;51.920;4.492;2022-09-28T16:20:55;5.35;;;1.70;;
44143;SDS011;43510;51.920;4.492;2022-09-28T16:23:41;3.88;;;1.75;;
44143;SDS011;43510;51.920;4.492;2022-09-28T16:26:15;5.88;;;1.55;;
44143;SDS011;43510;51.920;4.492;2022-09-28T16:28:52;4.95;;;1.30;;
44143;SDS011;43510;51.920;4.492;2022-09-28T16:38:44;3.33;;;1.10;;
44143;SDS011;43510;51.920;4.492;2022-09-28T16:41:11;3.83;;;1.00;;
44143;SDS011;43510;51.920;4.492;2022-09-28T16:43:38;3.10;;;1.13;;
44143;SDS011;43510;51.920;4.492;2022-09-28T16:46:08;4.43;;;1.30;;
44143;SDS011;43510;51.920;4.492;2022-09-28T16:48:39;4.07;;;1.30;;
44143;SDS011;43510;51.920;4.492;2022-09-28T16:51:09;4.43;;;1.10;;
44143;SDS011;43510;51.920;4.492;2022-09-28T16:53:35;4.38;;;1.50;;
44143;SDS011;43510;51.920;4.492;2022-09-28T16:56:19;4.75;;;1.85;;
44143;SDS011;43510;51.920;4.492;2022-09-28T16:58:45;3.08;;;1.50;;
44143;SDS011;43510;51.920;4.492;2022-09-28T17:01:13;3.63;;;1.40;;
44143;SDS011;43510;51.920;4.492;2022-09-28T17:03:39;3.90;;;1.55;;
44143;SDS011;43510;51.920;4.492;2022-09-28T17:06:10;6.93;;;2.25;;
44143;SDS011;43510;51.920;4.492;2022-09-28T17:08:36;4.38;;;1.73;;
44143;SDS011;43510;51.920;4.492;2022-09-28T17:11:02;4.43;;;1.48;;
44143;SDS011;43510;51.920;4.492;2022-09-28T17:13:28;3.92;;;1.20;;
44143;SDS011;43510;51.920;4.492;2022-09-28T17:15:57;2.83;;;1.25;;
44143;SDS011;43510;51.920;4.492;2022-09-28T17:18:23;4.68;;;1.42;;
44143;SDS011;43510;51.920;4.492;2022-09-28T17:20:50;2.97;;;1.13;;
44143;SDS011;43510;51.920;4.492;2022-09-28T17:23:19;4.10;;;1.20;;
44143;SDS011;43510;51.920;4.492;2022-09-28T17:25:45;3.63;;;1.40;;
44143;SDS011;43510;51.920;4.492;2022-09-28T17:28:45;4.60;;;1.70;;
44143;SDS011;43510;51.920;4.492;2022-09-28T17:31:03;3.58;;;1.30;;
44143;SDS011;43510;51.920;4.492;2022-09-28T17:33:30;7.03;;;1.60;;
44143;SDS011;43510;51.920;4.492;2022-09-28T17:35:57;4.80;;;1.52;;
44143;SDS011;43510;51.920;4.492;2022-09-28T17:38:25;4.68;;;1.60;;
44143;SDS011;43510;51.920;4.492;2022-09-28T17:40:50;4.03;;;1.60;;
44143;SDS011;43510;51.920;4.492;2022-09-28T17:43:16;6.32;;;1.90;;
44143;SDS011;43510;51.920;4.492;2022-09-28T17:45:42;5.82;;;1.70;;
44143;SDS011;43510;51.920;4.492;2022-09-28T17:48:14;5.68;;;1.40;;
44143;SDS011;43510;51.920;4.492;2022-09-28T17:50:41;3.08;;;1.15;;
44143;SDS011;43510;51.920;4.492;2022-09-28T17:53:08;5.50;;;1.55;;
44143;SDS011;43510;51.920;4.492;2022-09-28T17:55:35;6.78;;;1.90;;
44143;SDS011;43510;51.920;4.492;2022-09-28T17:58:13;4.70;;;1.55;;
44143;SDS011;43510;51.920;4.492;2022-09-28T18:00:44;8.90;;;1.95;;
44143;SDS011;43510;51.920;4.492;2022-09-28T18:03:12;6.55;;;1.88;;
44143;SDS011;43510;51.920;4.492;2022-09-28T18:05:40;6.30;;;1.67;;
44143;SDS011;43510;51.920;4.492;2022-09-28T18:08:08;5.60;;;1.67;;
44143;SDS011;43510;51.920;4.492;2022-09-28T18:10:36;5.78;;;1.75;;
44143;SDS011;43510;51.920;4.492;2022-09-28T18:13:02;4.43;;;1.50;;
44143;SDS011;43510;51.920;4.492;2022-09-28T18:15:27;6.05;;;2.00;;
44143;SDS011;43510;51.920;4.492;2022-09-28T18:17:53;8.43;;;1.70;;
44143;SDS011;43510;51.920;4.492;2022-09-28T18:20:18;9.32;;;2.05;;
44143;SDS011;43510;51.920;4.492;2022-09-28T18:22:43;7.85;;;2.20;;
44143;SDS011;43510;51.920;4.492;2022-09-28T18:25:09;4.18;;;1.58;;